首页
METAR-TAF:

METAR-TAF

机场 :

德島飛行場

德島, 日本

纬度: 34-08N, 经度: 134-37E, 海拔: 8米

当前天气观测

该预报发布于1小时和45分钟前的09:30 UTC
风速17节,风向
温度 13°C
湿度 58%
气压 1018 hPa
能见度10公里或以上
少量云层高于1500英尺
散云层高于3000英尺
多云层高于5000英尺

METAR: RJOS 220930Z 35017KT 9999 FEW015 SCT030 BKN050 13/05 Q1018 RMK 1CU015 4CU030 6SC050 A3007

时间: 20:15 (11:15 UTC)


TAF: 丢失

超过4000个机场的气象观测和天气预报(METAR&TAF报告)。

可查询的气象台以黄色和红色小点在地图上表示。

将鼠标移到小点上方,可查看气象台名称。

然后点击查看天气观测和预报。

如需切换地图:点击带黑十字的绿色按钮放大地图;点击带横线的绿色按钮缩小地图;或者点击绿色箭头查看邻近地区的地图。


METAR-TAF: